Time;durP1;ratioP1;P1;durP2;ratioP2;P2;SDS_P1;SDS_P2;PMS_P1;PMS_P2;Temp;Humidity;BMP_temperature;BMP_pressure;BME280_temperature;BME280_humidity;BME280_pressure;Samples;Min_cycle;Max_cycle;Signal;HPM_P1;HPM_P2
2023/03/15 00:01:23;;;;;;;4.77;1.33;;;;;;;8.51;55.57;97253.56;8384731;28;20519;-71
2023/03/15 00:05:25;;;;;;;4.77;1.70;;;;;;;8.53;56.52;97281.84;8384261;28;20333;-71
2023/03/15 00:09:28;;;;;;;3.90;1.53;;;;;;;8.47;56.32;97282.97;8384459;28;20280;-70
2023/03/15 00:13:31;;;;;;;3.47;1.30;;;;;;;8.51;56.03;97278.50;8384201;28;20240;-70
2023/03/15 00:17:35;;;;;;;4.30;1.47;;;;;;;8.70;55.78;97301.72;8384399;28;20229;-71
2023/03/15 00:21:42;;;;;;;2.67;1.30;;;;;;;8.60;55.80;97296.16;8384170;28;20590;-70
2023/03/15 00:25:45;;;;;;;3.60;1.37;;;;;;;8.56;56.23;97300.63;8383593;28;20517;-70
2023/03/15 00:29:47;;;;;;;3.93;1.10;;;;;;;8.57;56.37;97306.63;8383980;28;20423;-70
2023/03/15 00:33:52;;;;;;;5.70;1.50;;;;;;;8.12;56.73;97275.09;8383717;28;20229;-70
2023/03/15 00:37:56;;;;;;;4.83;1.50;;;;;;;8.55;56.43;97324.78;8383587;28;20578;-70
2023/03/15 00:41:59;;;;;;;4.73;1.50;;;;;;;8.45;56.78;97340.75;8383296;28;20239;-70
2023/03/15 00:46:02;;;;;;;5.60;1.53;;;;;;;8.57;56.19;97341.03;8383374;28;20245;-70
2023/03/15 00:50:07;;;;;;;5.30;1.70;;;;;;;8.35;56.23;97351.44;8383121;28;20248;-70
2023/03/15 00:54:12;;;;;;;3.77;1.70;;;;;;;7.77;57.15;97351.44;8383080;28;20229;-70
2023/03/15 00:58:15;;;;;;;5.43;1.90;;;;;;;8.23;56.50;97375.22;8382812;28;20237;-70
2023/03/15 01:02:20;;;;;;;6.33;2.20;;;;;;;7.89;56.75;97393.91;8382615;28;20229;-70
2023/03/15 01:06:26;;;;;;;3.80;1.70;;;;;;;8.00;56.63;97389.97;8382748;28;20239;-70
2023/03/15 01:10:29;;;;;;;3.93;1.60;;;;;;;7.87;56.71;97400.88;8382750;28;20402;-70
2023/03/15 01:14:34;;;;;;;3.13;1.40;;;;;;;7.79;55.76;97390.88;8382593;28;20225;-70
2023/03/15 01:18:37;;;;;;;2.73;1.00;;;;;;;7.98;55.40;97398.66;8382438;28;20233;-70
2023/03/15 01:22:41;;;;;;;1.30;0.70;;;;;;;8.00;54.25;97396.88;8382202;28;20465;-70
2023/03/15 01:26:44;;;;;;;2.03;0.77;;;;;;;8.05;54.31;97406.97;8381655;28;20244;-70
2023/03/15 01:30:50;;;;;;;1.53;0.70;;;;;;;7.95;55.26;97416.84;8382005;28;20225;-70
2023/03/15 01:34:52;;;;;;;2.63;1.00;;;;;;;8.08;55.21;97412.84;8381581;28;20239;-70
2023/03/15 01:38:57;;;;;;;2.13;0.80;;;;;;;8.01;55.57;97427.75;8381803;28;20236;-71
2023/03/15 01:43:15;;;;;;;2.30;0.70;;;;;;;8.25;54.88;97419.00;8381537;28;20225;-70
2023/03/15 01:47:18;;;;;;;1.50;0.80;;;;;;;8.24;54.94;97410.41;8381304;28;20224;-71
2023/03/15 01:51:23;;;;;;;1.60;0.90;;;;;;;8.14;54.95;97422.06;8381301;28;20228;-71
2023/03/15 01:55:31;;;;;;;2.43;0.90;;;;;;;8.20;55.23;97427.75;8380796;28;20251;-69
2023/03/15 01:59:36;;;;;;;1.60;1.10;;;;;;;8.18;55.38;97441.66;8381151;28;20225;-70
2023/03/15 02:03:45;;;;;;;2.97;1.30;;;;;;;8.19;55.63;97454.47;8380537;28;20532;-69
2023/03/15 02:07:49;;;;;;;1.70;1.23;;;;;;;8.17;55.48;97455.47;8380189;28;20467;-69
2023/03/15 02:11:53;;;;;;;2.90;1.27;;;;;;;8.02;55.59;97455.19;8380829;28;20232;-70
2023/03/15 02:15:57;;;;;;;1.40;1.00;;;;;;;7.97;55.73;97453.72;8380839;28;20236;-69
2023/03/15 02:20:05;;;;;;;2.47;1.77;;;;;;;7.68;56.07;97460.06;8380446;28;20521;-70
2023/03/15 02:24:24;;;;;;;3.20;2.60;;;;;;;7.80;56.00;97464.72;8380219;28;20229;-69
2023/03/15 02:28:29;;;;;;;5.57;3.23;;;;;;;7.96;55.34;97465.78;8380018;28;20432;-69
2023/03/15 02:32:32;;;;;;;5.63;3.47;;;;;;;7.80;56.10;97462.13;8379941;28;20221;-69
2023/03/15 02:36:36;;;;;;;4.70;3.30;;;;;;;7.85;55.95;97473.09;8379931;28;20221;-69
2023/03/15 02:40:39;;;;;;;5.10;3.00;;;;;;;7.55;56.39;97480.34;8379491;28;20400;-69
2023/03/15 02:44:45;;;;;;;3.77;2.63;;;;;;;7.57;56.36;97486.28;8379384;28;20518;-70
2023/03/15 02:48:48;;;;;;;7.07;2.97;;;;;;;7.62;55.81;97494.66;8379574;28;20233;-69
2023/03/15 02:52:51;;;;;;;6.57;2.63;;;;;;;7.71;55.81;97511.47;8379443;28;20300;-70
2023/03/15 02:56:54;;;;;;;6.03;2.80;;;;;;;7.50;56.06;97531.22;8379370;28;20423;-70
2023/03/15 03:00:58;;;;;;;6.60;2.57;;;;;;;7.64;55.71;97534.94;8379350;28;20233;-69
2023/03/15 03:05:01;;;;;;;6.50;2.30;;;;;;;7.56;55.39;97542.13;8379298;28;20259;-70
2023/03/15 03:09:04;;;;;;;4.03;2.33;;;;;;;7.32;56.34;97554.22;8378946;28;20267;-70
2023/03/15 03:13:07;;;;;;;5.30;2.47;;;;;;;7.42;55.55;97563.28;8378029;28;20242;-68
2023/03/15 03:17:11;;;;;;;4.83;2.20;;;;;;;7.38;55.66;97573.75;8378828;28;20232;-69
2023/03/15 03:21:14;;;;;;;4.60;2.00;;;;;;;7.47;55.06;97580.31;8378900;28;20217;-69
2023/03/15 03:25:17;;;;;;;5.07;2.27;;;;;;;7.17;55.07;97575.38;8378762;28;20225;-69
2023/03/15 03:29:20;;;;;;;6.83;2.80;;;;;;;7.10;56.12;97597.97;8378640;28;20228;-70
2023/03/15 03:33:24;;;;;;;6.10;2.90;;;;;;;7.34;55.35;97611.66;8378701;28;20233;-69
2023/03/15 03:37:29;;;;;;;6.33;3.13;;;;;;;7.24;55.66;97626.63;8378486;28;20225;-69
2023/03/15 03:41:32;;;;;;;9.13;3.40;;;;;;;7.05;55.64;97600.69;8378588;28;20224;-69
2023/03/15 03:45:38;;;;;;;6.97;3.60;;;;;;;7.30;55.24;97628.13;8378387;28;20428;-69
2023/03/15 03:49:42;;;;;;;5.67;2.90;;;;;;;7.20;55.31;97634.53;8378352;28;20437;-70
2023/03/15 03:53:45;;;;;;;4.60;3.23;;;;;;;7.27;55.05;97643.69;8378030;28;20243;-70
2023/03/15 03:57:48;;;;;;;7.60;3.73;;;;;;;7.09;55.21;97647.78;8378133;28;20426;-70
2023/03/15 04:01:51;;;;;;;6.90;3.70;;;;;;;7.10;55.32;97652.03;8378203;28;20228;-70
2023/03/15 04:05:56;;;;;;;6.03;3.57;;;;;;;7.06;55.21;97653.00;8378093;28;20229;-70
2023/03/15 04:10:01;;;;;;;9.07;3.83;;;;;;;6.83;55.71;97653.81;8377756;28;20509;-70
2023/03/15 04:14:03;;;;;;;5.23;3.97;;;;;;;6.84;55.17;97663.22;8377922;28;20232;-69
2023/03/15 04:18:06;;;;;;;4.17;3.57;;;;;;;6.92;55.72;97668.13;8377947;28;20229;-70
2023/03/15 04:22:14;;;;;;;7.40;4.10;;;;;;;6.85;55.21;97676.06;8377776;28;20224;-69
2023/03/15 04:26:16;;;;;;;12.20;4.30;;;;;;;6.89;54.79;97686.22;8382575;28;20231;-70
2023/03/15 04:30:25;;;;;;;7.67;4.20;;;;;;;6.71;55.92;97693.69;8384036;28;20228;-69
2023/03/15 04:34:28;;;;;;;6.80;4.10;;;;;;;6.76;55.73;97696.94;8383964;28;20229;-70
2023/03/15 04:38:34;;;;;;;7.67;4.20;;;;;;;6.97;55.24;97708.25;8383611;28;20225;-70
2023/03/15 04:42:38;;;;;;;7.00;4.40;;;;;;;6.90;55.18;97709.34;8383479;28;20222;-69
2023/03/15 04:46:41;;;;;;;6.73;4.17;;;;;;;6.82;55.38;97713.94;8383102;28;20286;-70
2023/03/15 04:50:44;;;;;;;7.03;4.23;;;;;;;6.83;55.60;97718.16;8383207;28;20243;-71
2023/03/15 04:54:48;;;;;;;7.43;4.90;;;;;;;6.59;56.02;97715.53;8383164;28;20424;-70
2023/03/15 04:58:51;;;;;;;6.70;4.50;;;;;;;6.78;55.42;97720.06;8383120;28;20544;-69
2023/03/15 05:02:54;;;;;;;9.07;4.53;;;;;;;6.71;55.56;97728.88;8382875;28;20236;-69
2023/03/15 05:06:57;;;;;;;9.07;4.63;;;;;;;6.71;55.29;97731.44;8382708;28;20240;-70
2023/03/15 05:11:01;;;;;;;9.40;5.10;;;;;;;6.74;55.67;97745.06;8382631;28;20232;-70
2023/03/15 05:15:04;;;;;;;9.10;4.83;;;;;;;6.72;55.40;97752.00;8382243;28;20445;-70
2023/03/15 05:19:10;;;;;;;7.67;4.43;;;;;;;6.77;55.26;97756.97;8382509;28;20217;-70
2023/03/15 05:23:13;;;;;;;8.37;4.80;;;;;;;6.69;55.07;97757.22;8382199;28;20228;-70
2023/03/15 05:27:20;;;;;;;8.77;5.60;;;;;;;6.83;54.82;97764.50;8382091;28;20229;-69
2023/03/15 05:31:22;;;;;;;8.93;5.17;;;;;;;6.90;54.59;97760.00;8381724;28;20248;-70
2023/03/15 05:35:25;;;;;;;11.80;5.00;;;;;;;6.94;54.59;97772.72;8380802;28;20248;-69
2023/03/15 05:39:28;;;;;;;8.43;4.50;;;;;;;6.92;54.55;97776.25;8381891;28;20269;-69
2023/03/15 05:43:34;;;;;;;5.93;4.33;;;;;;;6.95;54.64;97789.84;8381811;28;20227;-69
2023/03/15 05:47:37;;;;;;;5.20;4.10;;;;;;;6.85;54.66;97797.03;8381511;28;20229;-69
2023/03/15 05:51:40;;;;;;;7.17;4.20;;;;;;;6.89;54.49;97807.22;8381300;28;20229;-68
2023/03/15 05:55:43;;;;;;;7.80;4.27;;;;;;;6.82;54.25;97811.75;8380863;28;20229;-69
2023/03/15 05:59:48;;;;;;;9.27;4.70;;;;;;;7.72;52.14;97818.16;8380926;28;20627;-69
2023/03/15 06:03:51;;;;;;;9.90;4.10;;;;;;;8.49;50.16;97823.16;8381188;28;20235;-69
2023/03/15 06:07:54;;;;;;;5.60;3.63;;;;;;;8.77;49.83;97827.22;8380626;28;20237;-69
2023/03/15 06:11:57;;;;;;;5.80;3.40;;;;;;;9.02;48.82;97827.09;8380829;28;20554;-69
2023/03/15 06:16:02;;;;;;;7.00;3.73;;;;;;;9.40;48.37;97827.25;8380655;28;20237;-69
2023/03/15 06:20:05;;;;;;;7.90;3.83;;;;;;;9.32;48.05;97829.31;8380562;28;20224;-69
2023/03/15 06:24:09;;;;;;;7.90;3.60;;;;;;;9.82;46.77;97830.66;8380140;28;20519;-69
2023/03/15 06:28:11;;;;;;;9.33;3.50;;;;;;;9.99;46.40;97833.34;8379716;28;20230;-69
2023/03/15 06:32:15;;;;;;;9.43;4.03;;;;;;;9.89;45.73;97839.84;8380096;28;20240;-69
2023/03/15 06:36:19;;;;;;;8.67;3.60;;;;;;;10.18;45.34;97835.97;8380072;28;20230;-69
2023/03/15 06:40:21;;;;;;;7.23;3.70;;;;;;;10.30;44.56;97840.63;8378771;28;20227;-69
2023/03/15 06:44:24;;;;;;;7.83;3.60;;;;;;;10.78;43.79;97835.03;8379670;28;20225;-70
2023/03/15 06:48:28;;;;;;;6.93;3.70;;;;;;;11.02;43.26;97848.53;8379286;28;20420;-69
2023/03/15 06:52:31;;;;;;;8.20;3.20;;;;;;;11.40;42.74;97836.28;8379344;28;20242;-69
2023/03/15 06:56:36;;;;;;;4.57;3.33;;;;;;;10.85;43.46;97833.78;8379202;28;20240;-70
2023/03/15 07:00:38;;;;;;;7.17;3.63;;;;;;;10.80;43.01;97849.56;8379134;28;20240;-69
2023/03/15 07:04:44;;;;;;;6.00;3.70;;;;;;;11.15;42.79;97847.88;8378769;28;20243;-69
2023/03/15 07:08:46;;;;;;;7.83;4.13;;;;;;;11.51;41.73;97854.75;8378885;28;20244;-69
2023/03/15 07:12:49;;;;;;;7.97;3.90;;;;;;;11.31;42.14;97853.16;8378802;28;20316;-69
2023/03/15 07:16:52;;;;;;;7.60;4.30;;;;;;;11.60;42.48;97861.25;8378956;28;20433;-69
2023/03/15 07:20:59;;;;;;;6.33;3.97;;;;;;;11.96;41.63;97865.50;8379024;28;20254;-69
2023/03/15 07:25:02;;;;;;;5.80;3.53;;;;;;;11.67;40.64;97866.94;8378687;28;20430;-70
2023/03/15 07:29:05;;;;;;;6.00;3.93;;;;;;;11.53;41.26;97863.28;8378357;28;20247;-70
2023/03/15 07:33:10;;;;;;;7.03;3.70;;;;;;;11.03;41.88;97879.56;8378509;28;20454;-70
2023/03/15 07:37:16;;;;;;;8.20;4.20;;;;;;;11.07;42.64;97875.91;8378744;28;20235;-70
2023/03/15 07:41:19;;;;;;;7.83;4.07;;;;;;;11.59;41.45;97872.53;8378613;28;20225;-70
2023/03/15 07:45:24;;;;;;;6.70;3.17;;;;;;;11.34;41.42;97876.31;8378426;28;20232;-70
2023/03/15 07:49:27;;;;;;;5.30;3.13;;;;;;;11.12;41.94;97876.53;8378210;28;20233;-70
2023/03/15 07:53:31;;;;;;;5.50;2.77;;;;;;;11.07;41.12;97873.31;8378033;28;20585;-70
2023/03/15 07:57:34;;;;;;;7.73;3.20;;;;;;;10.49;42.16;97881.19;8378163;28;20240;-70
2023/03/15 08:01:37;;;;;;;6.97;3.07;;;;;;;10.99;41.89;97880.63;8383704;28;20513;-70
2023/03/15 08:05:39;;;;;;;8.07;2.80;;;;;;;11.40;40.20;97884.72;8384644;28;20232;-70
2023/03/15 08:09:45;;;;;;;4.30;2.50;;;;;;;11.11;41.31;97887.81;8384097;28;20229;-70
2023/03/15 08:13:49;;;;;;;6.23;3.00;;;;;;;11.68;40.20;97892.81;8384144;28;20235;-70
2023/03/15 08:17:52;;;;;;;4.23;2.50;;;;;;;11.46;39.69;97841.19;8384258;28;20251;-70
2023/03/15 08:21:55;;;;;;;6.17;2.87;;;;;;;12.79;38.63;97883.66;8383937;28;20235;-70
2023/03/15 08:26:00;;;;;;;8.63;2.90;;;;;;;12.02;39.23;97890.31;8384318;28;20231;-70
2023/03/15 08:30:03;;;;;;;7.30;2.77;;;;;;;12.83;36.62;97888.59;8383786;28;20237;-70
2023/03/15 08:34:07;;;;;;;6.23;2.90;;;;;;;13.26;37.68;97896.59;8383765;28;20225;-70
2023/03/15 08:38:09;;;;;;;6.93;2.60;;;;;;;13.85;37.29;97894.13;8383523;28;20231;-70
2023/03/15 08:42:14;;;;;;;11.67;3.40;;;;;;;12.13;37.02;97891.44;8383712;28;20228;-70
2023/03/15 08:46:20;;;;;;;7.87;2.20;;;;;;;13.77;37.63;97895.50;8383742;28;20241;-70
2023/03/15 08:50:23;;;;;;;7.80;2.43;;;;;;;12.73;36.90;97903.00;8383079;28;20237;-70
2023/03/15 08:54:27;;;;;;;6.30;2.47;;;;;;;12.25;37.96;97899.50;8383300;28;20226;-70
2023/03/15 08:58:31;;;;;;;4.20;1.90;;;;;;;11.51;38.43;97901.44;8383226;28;20233;-68
2023/03/15 09:02:33;;;;;;;6.70;2.40;;;;;;;11.08;39.54;97903.53;8383266;28;20229;-69
2023/03/15 09:06:36;;;;;;;7.67;2.10;;;;;;;10.25;40.69;97906.44;8383120;28;20394;-69
2023/03/15 09:10:39;;;;;;;6.40;2.00;;;;;;;10.73;41.35;97924.13;8381541;28;20235;-69
2023/03/15 09:14:43;;;;;;;9.47;2.40;;;;;;;10.75;41.26;97927.47;8382671;28;20536;-69
2023/03/15 09:18:47;;;;;;;6.20;2.00;;;;;;;10.71;40.86;97912.97;8382849;28;20597;-69
2023/03/15 09:22:52;;;;;;;9.13;2.40;;;;;;;10.43;41.60;97865.94;8382384;28;20229;-70
2023/03/15 09:26:54;;;;;;;4.07;1.97;;;;;;;9.73;44.39;97941.38;8382445;28;20240;-69
2023/03/15 09:30:58;;;;;;;7.43;2.00;;;;;;;9.38;44.27;97940.19;8382196;28;20237;-70
2023/03/15 09:35:03;;;;;;;5.73;2.27;;;;;;;8.79;47.01;97937.28;8382138;28;20533;-70
2023/03/15 09:39:07;;;;;;;6.77;2.20;;;;;;;8.74;48.45;97954.72;8382191;28;20535;-69
2023/03/15 09:43:34;;;;;;;8.20;2.60;;;;;;;8.99;49.21;97958.97;8382051;28;20229;-69
2023/03/15 09:47:45;;;;;;;7.97;2.40;;;;;;;9.03;48.41;97957.94;8381969;28;20384;-69
2023/03/15 09:51:51;;;;;;;7.17;2.90;;;;;;;9.35;47.73;97964.44;8381096;28;20244;-69
2023/03/15 09:55:54;;;;;;;5.90;2.20;;;;;;;9.36;46.31;97953.19;8381548;28;20464;-69
2023/03/15 09:59:56;;;;;;;7.40;1.50;;;;;;;11.67;73.27;97970.69;8381361;28;20235;-67
2023/03/15 10:04:05;;;;;;;5.30;2.30;;;;;;;11.64;56.25;97957.91;8380937;28;20239;-67
2023/03/15 10:08:12;;;;;;;5.47;1.93;;;;;;;11.40;50.57;97946.94;8380822;28;20227;-68
2023/03/15 10:12:16;;;;;;;9.23;2.97;;;;;;;12.15;48.36;97965.78;8381049;28;20221;-67
2023/03/15 10:16:29;;;;;;;7.97;3.10;;;;;;;11.97;47.75;97971.00;8380947;28;20232;-66
2023/03/15 10:20:36;;;;;;;5.03;2.17;;;;;;;10.55;44.78;97945.69;8380683;28;20244;-69
2023/03/15 10:24:43;;;;;;;4.70;2.30;;;;;;;10.05;45.88;97970.25;8380246;28;20420;-69
2023/03/15 10:28:45;;;;;;;4.93;2.13;;;;;;;9.53;47.72;97973.19;8380107;28;20416;-69
2023/03/15 10:32:52;;;;;;;7.73;4.27;;;;;;;9.53;49.02;97972.34;8380013;28;20242;-70
2023/03/15 10:36:57;;;;;;;8.27;3.67;;;;;;;9.52;49.66;97981.88;8380029;28;20384;-70
2023/03/15 10:41:00;;;;;;;6.13;3.30;;;;;;;9.47;50.08;97988.94;8379788;28;20551;-69
2023/03/15 10:45:14;;;;;;;7.13;3.57;;;;;;;9.50;50.94;97988.84;8379721;28;20503;-70
2023/03/15 10:49:17;;;;;;;5.13;2.00;;;;;;;8.61;51.22;97984.47;8379641;28;20231;-69
2023/03/15 10:53:24;;;;;;;5.90;2.60;;;;;;;8.88;51.43;97981.75;8379160;28;20407;-69
2023/03/15 10:57:28;;;;;;;6.07;2.57;;;;;;;8.77;51.97;97971.81;8379421;28;20480;-69
2023/03/15 11:01:33;;;;;;;6.90;2.57;;;;;;;8.93;51.85;97977.25;8379591;28;20229;-69
2023/03/15 11:05:43;;;;;;;6.60;2.35;;;;;;;9.12;50.30;97991.16;8378392;28;20734;-69
2023/03/15 11:09:54;;;;;;;7.20;2.30;;;;;;;8.68;52.54;97977.31;8378721;28;20380;-70
2023/03/15 11:14:00;;;;;;;3.70;2.27;;;;;;;8.99;50.88;97949.47;8379024;28;20232;-69
2023/03/15 11:18:03;;;;;;;5.53;2.47;;;;;;;8.63;52.60;97982.66;8379064;28;20233;-70
2023/03/15 11:22:08;;;;;;;7.77;2.30;;;;;;;9.02;51.37;97983.81;8378946;28;20233;-70
2023/03/15 11:26:17;;;;;;;5.30;2.07;;;;;;;8.51;52.12;97970.19;8378919;28;20224;-69
2023/03/15 11:30:34;;;;;;;5.20;1.80;;;;;;;8.83;51.81;97984.50;8378636;28;20539;-69
2023/03/15 11:34:40;;;;;;;5.20;2.07;;;;;;;8.33;53.22;97980.22;8377736;28;20221;-69
2023/03/15 11:38:44;;;;;;;4.60;2.50;;;;;;;8.95;52.47;97986.63;8378081;28;20540;-69
2023/03/15 11:42:54;;;;;;;5.20;1.90;;;;;;;8.56;51.80;97981.19;8378423;28;20235;-69
2023/03/15 11:46:59;;;;;;;3.53;1.70;;;;;;;8.15;52.61;97980.88;8378331;28;20225;-69
2023/03/15 11:51:02;;;;;;;3.70;1.63;;;;;;;7.91;52.41;97920.66;8378133;28;20263;-69
2023/03/15 11:55:05;;;;;;;4.33;1.60;;;;;;;8.32;52.33;97982.84;8378344;28;20224;-69
2023/03/15 11:59:11;;;;;;;3.27;1.60;;;;;;;8.53;52.03;97987.31;8378400;28;20235;-69
2023/03/15 12:03:34;;;;;;;3.67;1.90;;;;;;;8.53;52.12;97979.56;8378198;28;20284;-69
2023/03/15 12:07:38;;;;;;;4.23;1.60;;;;;;;8.21;52.22;97983.25;8377985;28;20353;-69
2023/03/15 12:11:42;;;;;;;3.40;1.85;;;;;;;8.84;51.57;97980.19;8376771;28;20425;-69
2023/03/15 12:15:48;;;;;;;3.63;1.90;;;;;;;8.64;51.74;97978.31;8377889;28;20236;-69
2023/03/15 12:19:58;;;;;;;3.27;2.30;;;;;;;8.68;52.31;97985.94;8378010;28;20541;-69
2023/03/15 12:24:04;;;;;;;3.77;2.37;;;;;;;8.57;51.37;97982.88;8377727;28;20687;-70
2023/03/15 12:28:08;;;;;;;3.47;2.13;;;;;;;8.54;51.53;97993.31;8378186;28;20320;-70
2023/03/15 12:32:14;;;;;;;4.87;2.60;;;;;;;8.57;50.76;97988.06;8377871;28;20229;-68
2023/03/15 12:36:29;;;;;;;4.00;2.00;;;;;;;8.30;50.99;97987.22;8377626;28;20225;-69
2023/03/15 12:40:40;;;;;;;3.40;2.00;;;;;;;8.48;50.90;97991.78;8377823;28;20233;-70
2023/03/15 12:44:44;;;;;;;3.77;1.90;;;;;;;8.59;51.47;97981.91;8377855;28;20225;-69
2023/03/15 12:49:09;;;;;;;4.37;2.50;;;;;;;8.42;51.92;97992.00;8383314;28;20228;-70
2023/03/15 12:53:16;;;;;;;5.17;1.63;;;;;;;8.19;52.16;97990.19;8383282;28;20244;-69
2023/03/15 12:57:21;;;;;;;4.00;2.90;;;;;;;8.08;51.31;97922.66;8383371;28;20252;-69
2023/03/15 13:01:25;;;;;;;2.87;1.90;;;;;;;8.74;51.29;97993.44;8383230;28;20239;-69
2023/03/15 13:05:35;;;;;;;2.10;1.80;;;;;;;9.17;51.08;97998.72;8382830;28;20228;-69
2023/03/15 13:09:52;;;;;;;2.43;1.63;;;;;;;9.21;50.36;98002.88;8382745;28;20233;-70
2023/03/15 13:14:07;;;;;;;5.90;3.23;;;;;;;8.74;50.16;98011.50;8382446;28;20234;-69
2023/03/15 13:18:16;;;;;;;3.23;1.77;;;;;;;8.70;50.07;98004.78;8382550;28;20228;-69
2023/03/15 13:22:25;;;;;;;3.50;1.60;;;;;;;8.71;50.92;98011.63;8382513;28;20239;-68
2023/03/15 13:26:49;;;;;;;2.53;1.30;;;;;;;8.54;50.83;98009.63;8382707;28;20261;-69
2023/03/15 13:30:54;;;;;;;2.53;1.70;;;;;;;8.64;51.15;98007.56;8382170;28;20225;-70
2023/03/15 13:34:57;;;;;;;2.70;1.97;;;;;;;8.74;50.97;98008.94;8382232;28;20234;-70
2023/03/15 13:39:10;;;;;;;3.10;2.07;;;;;;;8.96;50.38;98002.97;8381938;28;20229;-69
2023/03/15 13:43:13;;;;;;;3.38;2.60;;;;;;;9.71;49.03;98012.13;8381117;28;20420;-69
2023/03/15 13:47:20;;;;;;;1.60;1.30;;;;;;;8.71;49.62;98014.19;8382035;28;20229;-69
2023/03/15 13:51:25;;;;;;;7.97;5.43;;;;;;;8.13;51.94;98013.59;8381495;28;20233;-69
2023/03/15 13:55:33;;;;;;;1.57;1.47;;;;;;;8.57;51.03;98006.13;8381600;28;20235;-69
2023/03/15 13:59:41;;;;;;;1.50;1.20;;;;;;;9.73;49.01;98008.59;8381912;28;20225;-70
2023/03/15 14:03:48;;;;;;;2.80;1.50;;;;;;;10.98;47.38;98011.09;8380998;28;20441;-69
2023/03/15 14:07:56;;;;;;;2.30;1.57;;;;;;;11.21;46.45;98009.19;8380970;28;20265;-69
2023/03/15 14:12:06;;;;;;;2.40;2.20;;;;;;;10.05;47.94;98019.41;8380908;28;20234;-70
2023/03/15 14:16:15;;;;;;;2.33;1.80;;;;;;;9.81;48.72;98005.72;8381116;28;20227;-69
2023/03/15 14:20:20;;;;;;;1.40;1.30;;;;;;;9.73;48.89;98007.78;8379764;28;20240;-70
2023/03/15 14:24:27;;;;;;;1.97;1.60;;;;;;;9.92;48.06;98006.13;8378811;28;20555;-70
2023/03/15 14:28:32;;;;;;;3.17;1.80;;;;;;;10.00;46.79;98004.97;8380341;28;20443;-69
2023/03/15 14:32:38;;;;;;;1.73;1.40;;;;;;;9.89;45.78;97982.13;8380070;28;20221;-70
2023/03/15 14:36:43;;;;;;;2.10;1.50;;;;;;;9.88;47.27;98006.28;8379855;28;20228;-70
2023/03/15 14:40:46;;;;;;;2.60;2.00;;;;;;;11.26;45.80;98012.44;8380212;28;20242;-70
2023/03/15 14:44:50;;;;;;;2.30;1.50;;;;;;;10.64;45.77;98016.94;8379867;28;20254;-70
2023/03/15 14:48:52;;;;;;;1.97;1.47;;;;;;;10.03;46.70;98010.81;8379840;28;20233;-70
2023/03/15 14:52:56;;;;;;;1.33;1.20;;;;;;;10.00;45.80;97998.03;8379760;28;20241;-70
2023/03/15 14:56:59;;;;;;;2.07;1.47;;;;;;;10.80;45.77;98005.00;8379288;28;20243;-70
2023/03/15 15:01:04;;;;;;;1.87;1.23;;;;;;;10.61;45.18;98010.16;8379614;28;20225;-70
2023/03/15 15:05:18;;;;;;;2.43;2.00;;;;;;;10.05;45.75;98003.00;8379219;28;20229;-70
2023/03/15 15:09:24;;;;;;;1.87;1.70;;;;;;;10.63;44.60;97953.09;8379000;28;20223;-69
2023/03/15 15:13:29;;;;;;;1.93;1.37;;;;;;;10.71;43.69;98001.03;8379634;28;20529;-69
2023/03/15 15:17:33;;;;;;;3.50;3.00;;;;;;;10.73;43.81;98004.41;8379313;28;20234;-68
2023/03/15 15:21:36;;;;;;;5.53;3.50;;;;;;;10.73;44.40;98003.56;8378833;28;20411;-69
2023/03/15 15:25:39;;;;;;;1.83;1.57;;;;;;;11.17;44.43;98012.84;8379115;28;20237;-69
2023/03/15 15:29:43;;;;;;;2.73;2.00;;;;;;;10.56;44.37;98012.91;8378724;28;20425;-69
2023/03/15 15:33:47;;;;;;;1.87;1.50;;;;;;;10.18;46.21;98014.53;8378625;28;20236;-69
2023/03/15 15:37:51;;;;;;;1.30;1.20;;;;;;;9.79;46.75;98016.13;8378350;28;20240;-70
2023/03/15 15:41:54;;;;;;;2.63;2.20;;;;;;;10.25;47.59;98003.03;8378601;28;20422;-69
2023/03/15 15:45:57;;;;;;;2.77;2.10;;;;;;;10.13;45.94;98016.50;8378435;28;20232;-68
2023/03/15 15:50:01;;;;;;;1.80;1.60;;;;;;;10.08;46.62;98018.41;8378080;28;20223;-69
2023/03/15 15:54:05;;;;;;;2.00;1.77;;;;;;;9.86;46.10;98015.84;8378299;28;20240;-68
2023/03/15 15:58:10;;;;;;;6.57;5.00;;;;;;;10.02;46.33;98029.84;8378551;28;20240;-69
2023/03/15 16:02:20;;;;;;;6.93;5.90;;;;;;;10.07;46.79;98035.69;8378378;28;20401;-69
2023/03/15 16:06:25;;;;;;;2.70;2.23;;;;;;;10.11;46.56;98039.84;8378282;28;20246;-69
2023/03/15 16:10:29;;;;;;;2.13;2.03;;;;;;;10.14;46.87;98039.69;8378322;28;20224;-69
2023/03/15 16:14:32;;;;;;;2.50;1.80;;;;;;;10.44;46.01;98048.88;8378443;28;20243;-69
2023/03/15 16:18:34;;;;;;;2.30;2.10;;;;;;;10.56;46.35;98051.75;8378507;28;20235;-69
2023/03/15 16:22:40;;;;;;;1.20;1.10;;;;;;;9.47;48.50;98084.59;8383733;28;20232;-70
2023/03/15 16:26:47;;;;;;;1.20;1.10;;;;;;;8.97;50.48;98097.66;8384166;28;20463;-69
2023/03/15 16:30:50;;;;;;;2.30;1.30;;;;;;;9.14;50.29;98086.72;8384255;28;20246;-69
2023/03/15 16:34:53;;;;;;;1.17;1.10;;;;;;;9.06;50.47;98083.53;8384448;28;20423;-71
2023/03/15 16:39:01;;;;;;;2.33;1.97;;;;;;;9.21;51.01;98108.81;8384605;28;20275;-68
2023/03/15 16:43:05;;;;;;;1.53;1.20;;;;;;;8.22;53.71;98121.66;8384248;28;20574;-69
2023/03/15 16:47:08;;;;;;;1.50;1.40;;;;;;;7.47;54.62;98136.88;8383728;28;20217;-68
2023/03/15 16:51:13;;;;;;;1.90;1.70;;;;;;;7.62;54.25;98134.69;8383446;28;20416;-68
2023/03/15 16:55:20;;;;;;;2.40;2.20;;;;;;;7.79;53.06;98128.19;8383598;28;20243;-68
2023/03/15 16:59:25;;;;;;;1.50;1.40;;;;;;;7.68;53.86;98158.59;8383520;28;20396;-68
2023/03/15 17:03:31;;;;;;;1.50;1.20;;;;;;;7.96;53.19;98163.75;8382799;28;20234;-69
2023/03/15 17:07:38;;;;;;;6.70;5.40;;;;;;;7.99;53.09;98172.22;8382690;28;20251;-68
2023/03/15 17:11:43;;;;;;;4.47;4.07;;;;;;;7.57;54.48;98167.47;8384165;28;20228;-67
2023/03/15 17:15:46;;;;;;;2.20;1.87;;;;;;;7.55;54.76;98163.25;8383390;28;20240;-67
2023/03/15 17:19:51;;;;;;;2.10;1.60;;;;;;;7.73;54.01;98143.81;8382845;28;20292;-67
2023/03/15 17:23:54;;;;;;;4.40;3.87;;;;;;;7.97;53.20;98153.38;8380436;28;20224;-66
2023/03/15 17:28:00;;;;;;;3.20;3.00;;;;;;;8.03;52.85;98147.19;8382312;28;20225;-67
2023/03/15 17:32:04;;;;;;;2.20;2.10;;;;;;;8.03;52.63;98153.22;8380399;28;20224;-67
2023/03/15 17:36:10;;;;;;;1.60;1.50;;;;;;;7.82;52.42;98165.03;8383032;28;20225;-67
2023/03/15 17:40:20;;;;;;;1.93;1.30;;;;;;;7.80;52.67;98141.00;8381905;28;20232;-68
2023/03/15 17:44:24;;;;;;;3.93;3.53;;;;;;;7.85;52.84;98164.09;8382211;28;20248;-68
2023/03/15 17:48:27;;;;;;;3.30;3.10;;;;;;;7.79;52.41;98182.31;8382080;28;20544;-68
2023/03/15 17:52:30;;;;;;;2.63;2.43;;;;;;;7.68;53.32;98179.22;8381811;28;20236;-68
2023/03/15 17:56:32;;;;;;;3.27;3.07;;;;;;;7.73;53.32;98193.66;8381022;28;20255;-68
2023/03/15 18:00:37;;;;;;;3.40;3.17;;;;;;;7.64;53.48;98197.34;8381300;28;20220;-68
2023/03/15 18:04:40;;;;;;;4.10;3.70;;;;;;;7.79;53.29;98203.78;8380791;28;20529;-68
2023/03/15 18:08:44;;;;;;;5.60;5.10;;;;;;;7.73;53.30;98209.13;8380998;28;20225;-69
2023/03/15 18:12:48;;;;;;;4.10;3.80;;;;;;;7.65;53.53;98195.59;8380813;28;20560;-68
2023/03/15 18:16:53;;;;;;;4.90;4.50;;;;;;;7.69;53.42;98214.41;8380823;28;20229;-69
2023/03/15 18:20:58;;;;;;;4.47;4.10;;;;;;;7.61;53.44;98224.94;8381146;28;20229;-68
2023/03/15 18:25:03;;;;;;;4.20;3.90;;;;;;;7.03;53.50;98217.91;8380159;28;22365;-67
2023/03/15 18:29:07;;;;;;;4.83;4.43;;;;;;;7.08;54.35;98238.38;8380759;28;20235;-69
2023/03/15 18:33:14;;;;;;;5.57;4.20;;;;;;;7.24;54.37;98237.09;8380576;28;20229;-68
2023/03/15 18:37:17;;;;;;;2.90;2.70;;;;;;;7.38;54.16;98238.44;8380474;28;20225;-68
2023/03/15 18:41:22;;;;;;;3.60;3.20;;;;;;;7.27;53.77;98240.47;8380271;28;20225;-68
2023/03/15 18:45:27;;;;;;;3.63;2.70;;;;;;;7.17;54.43;98245.03;8379782;28;20221;-68
2023/03/15 18:49:31;;;;;;;2.70;2.50;;;;;;;7.28;53.88;98245.59;8380101;28;20229;-67
2023/03/15 18:53:34;;;;;;;3.63;3.00;;;;;;;7.23;54.12;98247.44;8379888;28;20272;-68
2023/03/15 18:57:40;;;;;;;4.97;4.57;;;;;;;7.14;53.68;98263.97;8379395;28;20237;-69
2023/03/15 19:01:42;;;;;;;4.93;4.53;;;;;;;7.33;53.84;98260.91;8379401;28;20244;-67
2023/03/15 19:05:48;;;;;;;6.37;5.77;;;;;;;7.31;53.72;98252.38;8379286;28;20229;-68
2023/03/15 19:09:51;;;;;;;5.90;5.40;;;;;;;7.35;53.26;98252.28;8379613;28;20320;-70
2023/03/15 19:13:54;;;;;;;9.50;7.83;;;;;;;6.83;54.63;98253.59;8379079;28;20233;-68
2023/03/15 19:17:56;;;;;;;9.00;8.10;;;;;;;7.06;53.99;98250.44;8378984;28;20232;-67
2023/03/15 19:22:03;;;;;;;18.20;13.87;;;;;;;7.21;54.04;98255.19;8379098;28;20236;-67